Time;durP1;ratioP1;P1;durP2;ratioP2;P2;SDS_P1;SDS_P2;PMS_P1;PMS_P2;Temp;Humidity;BMP_temperature;BMP_pressure;BME280_temperature;BME280_humidity;BME280_pressure;Samples;Min_cycle;Max_cycle;Signal;HPM_P1;HPM_P2
2022/07/07 00:02:18;;;;;;;3.88;2.42;;;15.30;99.90;;;;;;4333214;28;10000655;-73
2022/07/07 00:04:43;;;;;;;4.68;2.80;;;15.30;99.90;;;;;;5037279;28;20041;-73
2022/07/07 00:07:09;;;;;;;5.82;3.00;;;15.30;99.90;;;;;;5029859;28;20083;-73
2022/07/07 00:09:35;;;;;;;3.58;2.97;;;15.30;99.90;;;;;;5035020;28;20080;-73
2022/07/07 00:12:01;;;;;;;6.25;3.00;;;15.20;99.90;;;;;;5033029;28;20040;-73
2022/07/07 00:14:26;;;;;;;7.65;3.10;;;15.20;99.90;;;;;;5035909;28;20359;-73
2022/07/07 00:16:52;;;;;;;3.45;3.03;;;15.20;99.90;;;;;;5042462;28;20028;-74
2022/07/07 00:19:18;;;;;;;3.08;2.53;;;15.20;99.90;;;;;;5038879;28;20532;-74
2022/07/07 00:21:44;;;;;;;4.18;3.35;;;15.20;99.90;;;;;;5036376;28;20028;-73
2022/07/07 00:24:10;;;;;;;4.22;3.03;;;15.20;99.90;;;;;;5032789;28;20029;-74
2022/07/07 00:26:35;;;;;;;5.07;2.95;;;15.20;99.90;;;;;;5043442;28;20120;-73
2022/07/07 00:29:01;;;;;;;6.90;3.90;;;15.10;99.90;;;;;;5024899;28;20045;-73
2022/07/07 00:31:26;;;;;;;6.22;3.72;;;15.10;99.90;;;;;;5035954;28;20076;-74
2022/07/07 00:33:52;;;;;;;5.28;3.78;;;15.10;99.90;;;;;;5032146;28;20128;-74
2022/07/07 00:36:18;;;;;;;8.48;4.05;;;15.10;99.90;;;;;;5045296;28;20079;-73
2022/07/07 00:38:44;;;;;;;5.10;3.90;;;15.10;99.90;;;;;;5032275;28;20112;-74
2022/07/07 00:41:09;;;;;;;4.97;3.60;;;15.10;99.90;;;;;;5046017;28;20067;-74
2022/07/07 00:43:40;;;;;;;7.43;3.90;;;15.10;99.90;;;;;;5041132;28;20036;-73
2022/07/07 00:46:07;;;;;;;6.10;4.07;;;15.00;99.90;;;;;;5043481;28;20033;-74
2022/07/07 00:48:35;;;;;;;5.60;4.10;;;15.00;99.90;;;;;;5043767;28;20029;-74
2022/07/07 00:51:03;;;;;;;8.30;4.00;;;15.00;99.90;;;;;;5044855;28;20021;-74
2022/07/07 00:53:29;;;;;;;7.13;4.10;;;14.90;99.90;;;;;;5045862;28;20454;-74
2022/07/07 00:55:54;;;;;;;5.72;4.68;;;14.90;99.90;;;;;;5040756;28;20029;-74
2022/07/07 00:58:20;;;;;;;4.45;3.60;;;14.90;99.90;;;;;;5038341;28;20031;-74
2022/07/07 01:00:46;;;;;;;7.65;3.22;;;14.90;99.90;;;;;;5041791;28;20038;-74
2022/07/07 01:03:12;;;;;;;5.80;3.80;;;14.90;99.90;;;;;;5045120;28;20388;-74
2022/07/07 01:05:40;;;;;;;4.90;4.13;;;14.90;99.90;;;;;;5040995;28;20025;-74
2022/07/07 01:08:08;;;;;;;4.85;3.85;;;14.90;99.90;;;;;;5035468;28;20033;-74
2022/07/07 01:10:34;;;;;;;5.03;4.25;;;14.90;99.90;;;;;;5045789;28;20055;-74
2022/07/07 01:13:04;;;;;;;7.38;4.28;;;14.90;99.90;;;;;;5044399;28;20052;-74
2022/07/07 01:15:30;;;;;;;6.57;4.00;;;14.90;99.90;;;;;;5045670;28;20156;-74
2022/07/07 01:17:56;;;;;;;4.32;3.92;;;14.80;99.90;;;;;;5043530;28;20040;-74
2022/07/07 01:20:22;;;;;;;4.85;3.80;;;14.80;99.90;;;;;;5036017;28;20025;-74
2022/07/07 01:22:53;;;;;;;4.55;4.15;;;14.80;99.90;;;;;;5037008;28;20040;-74
2022/07/07 01:25:19;;;;;;;5.80;4.07;;;14.80;99.90;;;;;;5030051;28;20041;-74
2022/07/07 01:27:44;;;;;;;7.63;4.10;;;14.80;99.90;;;;;;5039392;28;20037;-74
2022/07/07 01:30:10;;;;;;;5.53;4.28;;;14.80;99.90;;;;;;5044252;28;20032;-74
2022/07/07 01:32:36;;;;;;;5.43;4.10;;;14.80;99.90;;;;;;5042091;28;20029;-74
2022/07/07 01:35:02;;;;;;;5.18;4.05;;;14.80;99.90;;;;;;5041875;28;20048;-74
2022/07/07 01:37:28;;;;;;;4.38;3.67;;;14.80;99.90;;;;;;5039106;28;21550;-74
2022/07/07 01:39:54;;;;;;;6.75;3.88;;;14.80;99.90;;;;;;5034908;28;20378;-73
2022/07/07 01:42:20;;;;;;;4.90;4.35;;;14.80;99.90;;;;;;5042254;28;20032;-74
2022/07/07 01:44:46;;;;;;;4.70;3.85;;;14.80;99.90;;;;;;5036943;28;20531;-74
2022/07/07 01:47:13;;;;;;;5.28;3.67;;;14.80;99.90;;;;;;5034280;28;20134;-74
2022/07/07 01:49:38;;;;;;;8.55;4.60;;;14.80;99.90;;;;;;5043988;28;20044;-74
2022/07/07 01:52:05;;;;;;;6.15;4.47;;;14.70;99.90;;;;;;5046960;28;20079;-74
2022/07/07 01:54:32;;;;;;;6.50;4.65;;;14.70;99.90;;;;;;5040560;28;20206;-74
2022/07/07 01:56:58;;;;;;;5.60;3.92;;;14.70;99.90;;;;;;5040571;28;20029;-74
2022/07/07 01:59:24;;;;;;;5.28;4.10;;;14.70;99.90;;;;;;5042490;28;20381;-75
2022/07/07 02:01:50;;;;;;;8.85;3.95;;;14.70;99.90;;;;;;5040049;28;20033;-74
2022/07/07 02:04:16;;;;;;;7.73;3.67;;;14.70;99.90;;;;;;5039994;28;20017;-74
2022/07/07 02:06:42;;;;;;;12.05;4.28;;;14.70;99.90;;;;;;5041247;28;20666;-74
2022/07/07 02:09:08;;;;;;;7.15;4.22;;;14.70;99.90;;;;;;5036329;28;20033;-74
2022/07/07 02:11:34;;;;;;;4.25;3.83;;;14.70;99.90;;;;;;5029252;28;20489;-74
2022/07/07 02:14:01;;;;;;;7.13;4.40;;;14.60;99.90;;;;;;5042534;28;20032;-74
2022/07/07 02:16:27;;;;;;;5.32;4.60;;;14.60;99.90;;;;;;5039682;28;20313;-75
2022/07/07 02:18:55;;;;;;;5.40;4.35;;;14.60;99.90;;;;;;5040622;28;20030;-74
2022/07/07 02:21:21;;;;;;;9.50;4.68;;;14.60;99.90;;;;;;5036949;28;20493;-74
2022/07/07 02:23:49;;;;;;;6.25;4.22;;;14.60;99.90;;;;;;5043784;28;20033;-75
2022/07/07 02:26:15;;;;;;;4.78;4.03;;;14.50;99.90;;;;;;5038675;28;20036;-75
2022/07/07 02:28:41;;;;;;;6.45;4.80;;;14.50;99.90;;;;;;5042712;28;20379;-75
2022/07/07 02:31:08;;;;;;;8.68;4.85;;;14.50;99.90;;;;;;5041040;28;20032;-75
2022/07/07 02:33:35;;;;;;;5.07;4.53;;;14.50;99.90;;;;;;5037201;28;20044;-73
2022/07/07 02:36:01;;;;;;;7.15;5.15;;;14.50;99.90;;;;;;5054871;28;20063;-75
2022/07/07 02:38:27;;;;;;;5.07;4.60;;;14.40;99.90;;;;;;5037613;28;20428;-74
2022/07/07 02:40:53;;;;;;;6.13;5.53;;;14.40;99.90;;;;;;5041031;28;20090;-74
2022/07/07 02:43:19;;;;;;;7.00;5.28;;;14.40;99.90;;;;;;5040952;28;20085;-75
2022/07/07 02:45:47;;;;;;;5.97;4.72;;;14.50;99.90;;;;;;5048365;28;20029;-75
2022/07/07 02:48:15;;;;;;;8.13;4.90;;;14.50;99.90;;;;;;5043011;28;20036;-75
2022/07/07 02:50:40;;;;;;;5.93;5.32;;;14.50;99.90;;;;;;5045407;28;20465;-74
2022/07/07 02:53:08;;;;;;;6.93;5.15;;;14.50;99.90;;;;;;5045823;28;20044;-74
2022/07/07 02:55:34;;;;;;;5.43;4.90;;;14.50;99.90;;;;;;5033036;28;20025;-74
2022/07/07 02:58:00;;;;;;;4.95;4.47;;;14.50;99.90;;;;;;5044162;28;20036;-74
2022/07/07 03:00:27;;;;;;;6.20;4.93;;;14.50;99.90;;;;;;5042329;28;20029;-74
2022/07/07 03:02:54;;;;;;;7.38;4.70;;;14.50;99.90;;;;;;5048730;28;20035;-74
2022/07/07 03:05:22;;;;;;;7.22;4.60;;;14.50;99.90;;;;;;5037912;28;20038;-74
2022/07/07 03:07:49;;;;;;;6.40;4.70;;;14.50;99.90;;;;;;5045119;28;20024;-74
2022/07/07 03:10:15;;;;;;;5.18;4.63;;;14.50;99.90;;;;;;5043218;28;20033;-74
2022/07/07 03:12:41;;;;;;;7.72;4.97;;;14.50;99.90;;;;;;5042971;28;20025;-74
2022/07/07 03:15:08;;;;;;;5.25;4.45;;;14.60;99.90;;;;;;5046182;28;20033;-74
2022/07/07 03:17:34;;;;;;;5.93;4.68;;;14.60;99.90;;;;;;5039274;28;20041;-74
2022/07/07 03:20:00;;;;;;;9.95;4.10;;;14.50;99.90;;;;;;5038094;28;20037;-74
2022/07/07 03:22:26;;;;;;;5.53;4.47;;;14.50;99.90;;;;;;5042322;28;20504;-74
2022/07/07 03:24:51;;;;;;;6.75;4.47;;;14.60;99.90;;;;;;5041246;28;20040;-74
2022/07/07 03:27:17;;;;;;;8.10;3.85;;;14.60;99.90;;;;;;5043364;28;20164;-74
2022/07/07 03:29:42;;;;;;;5.07;3.95;;;14.60;99.90;;;;;;5040405;28;20515;-74
2022/07/07 03:32:09;;;;;;;5.03;3.90;;;14.60;99.90;;;;;;5044209;28;20156;-74
2022/07/07 03:34:35;;;;;;;8.52;4.47;;;14.60;99.90;;;;;;5044127;28;20026;-74
2022/07/07 03:37:03;;;;;;;5.68;4.40;;;14.60;99.90;;;;;;5035110;28;20131;-74
2022/07/07 03:39:28;;;;;;;7.03;4.65;;;14.60;99.90;;;;;;5033237;28;20115;-74
2022/07/07 03:41:54;;;;;;;5.43;4.55;;;14.60;99.90;;;;;;5038225;28;20053;-74
2022/07/07 03:44:19;;;;;;;5.60;4.75;;;14.60;99.90;;;;;;5039204;28;20029;-74
2022/07/07 03:46:45;;;;;;;7.32;4.85;;;14.60;99.90;;;;;;5040470;28;20037;-74
2022/07/07 03:49:10;;;;;;;5.47;4.68;;;14.60;99.90;;;;;;5046471;28;20037;-73
2022/07/07 03:51:36;;;;;;;7.55;4.85;;;14.60;99.90;;;;;;5046273;28;20027;-73
2022/07/07 03:54:02;;;;;;;6.65;4.80;;;14.60;99.90;;;;;;5034772;28;20466;-74
2022/07/07 03:56:28;;;;;;;8.50;5.07;;;14.60;99.90;;;;;;5046852;28;20039;-73
2022/07/07 03:58:53;;;;;;;9.68;5.03;;;14.50;99.90;;;;;;5041435;28;20033;-74
2022/07/07 04:01:19;;;;;;;7.43;4.97;;;14.50;99.90;;;;;;5037649;28;20116;-74
2022/07/07 04:03:45;;;;;;;5.55;4.60;;;14.60;99.90;;;;;;5034816;28;20035;-74
2022/07/07 04:06:10;;;;;;;6.45;4.00;;;14.60;99.90;;;;;;5040511;28;20425;-73
2022/07/07 04:08:36;;;;;;;9.98;4.82;;;14.60;99.90;;;;;;5035759;28;20043;-74
2022/07/07 04:11:01;;;;;;;5.85;4.78;;;14.60;99.90;;;;;;5041709;28;20057;-74
2022/07/07 04:13:27;;;;;;;6.53;4.63;;;14.60;99.90;;;;;;5046519;28;20088;-74
2022/07/07 04:15:53;;;;;;;7.65;4.75;;;14.60;99.90;;;;;;5043043;28;20033;-74
2022/07/07 04:18:18;;;;;;;7.40;4.65;;;14.60;99.90;;;;;;5034073;28;20396;-74
2022/07/07 04:20:44;;;;;;;6.80;4.70;;;14.60;99.90;;;;;;5041114;28;20025;-74
2022/07/07 04:23:09;;;;;;;9.75;4.95;;;14.60;99.90;;;;;;5038694;28;20432;-74
2022/07/07 04:25:35;;;;;;;4.97;4.32;;;14.60;99.90;;;;;;5035884;28;20634;-74
2022/07/07 04:28:01;;;;;;;9.52;4.85;;;14.60;99.90;;;;;;5038420;28;20480;-74
2022/07/07 04:30:26;;;;;;;6.18;4.38;;;14.60;99.90;;;;;;5030985;28;20636;-74
2022/07/07 04:32:52;;;;;;;8.13;4.25;;;14.60;99.90;;;;;;5045723;28;20020;-74
2022/07/07 04:35:17;;;;;;;8.20;4.72;;;14.60;99.90;;;;;;5031159;28;20059;-74
2022/07/07 04:37:43;;;;;;;6.32;4.28;;;14.60;99.90;;;;;;5040075;28;20025;-74
2022/07/07 04:40:09;;;;;;;6.75;4.40;;;14.60;99.90;;;;;;5039924;28;20034;-74
2022/07/07 04:42:35;;;;;;;6.47;4.25;;;14.60;99.90;;;;;;5040852;28;20029;-74
2022/07/07 04:45:00;;;;;;;7.55;4.68;;;14.50;99.90;;;;;;5034959;28;20219;-74
2022/07/07 04:47:26;;;;;;;6.70;4.95;;;14.60;99.90;;;;;;5038450;28;20028;-74
2022/07/07 04:49:52;;;;;;;7.50;5.03;;;14.60;99.90;;;;;;5037917;28;20370;-74
2022/07/07 04:52:18;;;;;;;6.93;4.97;;;14.60;99.90;;;;;;5039814;28;20061;-74
2022/07/07 04:54:43;;;;;;;7.88;4.75;;;14.60;99.90;;;;;;5043512;28;20112;-74
2022/07/07 04:57:09;;;;;;;5.63;4.15;;;14.60;99.90;;;;;;5044019;28;20412;-74
2022/07/07 04:59:35;;;;;;;5.43;4.47;;;14.60;99.90;;;;;;5036410;28;20091;-73
2022/07/07 05:02:01;;;;;;;8.13;4.53;;;14.60;99.90;;;;;;5041792;28;20552;-74
2022/07/07 05:04:26;;;;;;;12.15;4.90;;;14.60;99.90;;;;;;5040559;28;20472;-73
2022/07/07 05:06:52;;;;;;;8.18;4.85;;;14.60;99.90;;;;;;5030524;28;20624;-74
2022/07/07 05:09:18;;;;;;;7.28;4.40;;;14.60;99.90;;;;;;5036845;28;20078;-73
2022/07/07 05:11:44;;;;;;;5.07;4.40;;;14.60;99.90;;;;;;5034179;28;20302;-73
2022/07/07 05:14:10;;;;;;;9.40;4.80;;;14.60;99.90;;;;;;5038331;28;20388;-74
2022/07/07 05:16:35;;;;;;;8.27;4.72;;;14.60;99.90;;;;;;5035393;28;20489;-73
2022/07/07 05:19:01;;;;;;;8.13;4.57;;;14.60;99.90;;;;;;5033921;28;20421;-74
2022/07/07 05:21:27;;;;;;;9.48;4.60;;;14.60;99.90;;;;;;5045354;28;20029;-74
2022/07/07 05:23:52;;;;;;;9.27;4.45;;;14.60;99.90;;;;;;5034034;28;20037;-74
2022/07/07 05:26:18;;;;;;;4.85;4.13;;;14.60;99.90;;;;;;5042636;28;20017;-74
2022/07/07 05:28:43;;;;;;;5.10;4.25;;;14.60;99.90;;;;;;5040932;28;20123;-74
2022/07/07 05:31:13;;;;;;;10.85;4.28;;;14.60;99.90;;;;;;5042909;28;20017;-74
2022/07/07 05:33:39;;;;;;;9.00;5.13;;;14.60;99.90;;;;;;5036287;28;20021;-74
2022/07/07 05:36:05;;;;;;;8.05;4.57;;;14.60;99.90;;;;;;5039662;28;20040;-74
2022/07/07 05:38:32;;;;;;;7.25;4.32;;;14.60;99.90;;;;;;5036829;28;20413;-74
2022/07/07 05:40:57;;;;;;;12.02;4.45;;;14.60;99.90;;;;;;5044373;28;20556;-74
2022/07/07 05:43:23;;;;;;;7.80;5.00;;;14.60;99.90;;;;;;5040929;28;20161;-74
2022/07/07 05:45:49;;;;;;;7.82;4.20;;;14.60;99.90;;;;;;5041796;28;20037;-74
2022/07/07 05:48:15;;;;;;;9.13;4.25;;;14.60;99.90;;;;;;5038731;28;20032;-74
2022/07/07 05:50:40;;;;;;;6.53;4.60;;;14.60;99.90;;;;;;5041546;28;20021;-74
2022/07/07 05:53:06;;;;;;;7.22;4.50;;;14.60;99.90;;;;;;5041780;28;20088;-74
2022/07/07 05:55:32;;;;;;;7.32;4.72;;;14.60;99.90;;;;;;5042750;28;20444;-74
2022/07/07 05:57:59;;;;;;;9.43;4.95;;;14.60;99.90;;;;;;5041139;28;20024;-74
2022/07/07 06:00:26;;;;;;;7.38;5.38;;;14.70;99.90;;;;;;5038971;28;20025;-74
2022/07/07 06:02:52;;;;;;;8.25;5.78;;;14.70;99.90;;;;;;5036399;28;20033;-74
2022/07/07 06:05:18;;;;;;;10.02;5.85;;;14.70;99.90;;;;;;5038233;28;20033;-74
2022/07/07 06:07:44;;;;;;;11.02;6.47;;;14.70;99.90;;;;;;5039546;28;20108;-74
2022/07/07 06:10:14;;;;;;;9.73;6.18;;;14.70;99.90;;;;;;5043764;28;20104;-74
2022/07/07 06:12:42;;;;;;;7.30;6.60;;;14.70;99.90;;;;;;5040487;28;20045;-74
2022/07/07 06:15:09;;;;;;;10.57;6.90;;;14.70;99.90;;;;;;5036550;28;20018;-74
2022/07/07 06:17:35;;;;;;;9.27;6.90;;;14.60;99.90;;;;;;5041883;28;20017;-74
2022/07/07 06:20:02;;;;;;;9.73;6.15;;;14.60;99.90;;;;;;5041921;28;20427;-74
2022/07/07 06:22:28;;;;;;;9.60;6.57;;;14.60;99.90;;;;;;5044364;28;20060;-74
2022/07/07 06:24:54;;;;;;;10.52;6.30;;;14.70;99.90;;;;;;5048064;28;20033;-74
2022/07/07 06:27:20;;;;;;;9.65;6.30;;;14.70;99.90;;;;;;5038676;28;20039;-74
2022/07/07 06:29:46;;;;;;;7.10;6.40;;;14.80;99.90;;;;;;5047364;28;20025;-74
2022/07/07 06:32:15;;;;;;;10.65;6.15;;;14.90;99.90;;;;;;5047090;28;20033;-74
2022/07/07 06:34:41;;;;;;;10.02;6.75;;;14.90;99.90;;;;;;5043461;28;20083;-74
2022/07/07 06:37:07;;;;;;;12.75;6.53;;;14.90;99.90;;;;;;5045490;28;20115;-74
2022/07/07 06:39:33;;;;;;;7.88;5.78;;;15.00;99.90;;;;;;5043236;28;20033;-74
2022/07/07 06:41:59;;;;;;;11.77;6.57;;;15.20;99.90;;;;;;5042901;28;20667;-74
2022/07/07 06:44:30;;;;;;;13.05;6.00;;;15.30;99.90;;;;;;5039151;28;20021;-74
2022/07/07 06:46:57;;;;;;;8.70;6.00;;;15.40;99.90;;;;;;5041374;28;20041;-74
2022/07/07 06:49:23;;;;;;;8.05;5.80;;;15.40;99.90;;;;;;5046549;28;20059;-74
2022/07/07 06:51:49;;;;;;;6.55;5.68;;;15.40;99.90;;;;;;5041376;28;20049;-74
2022/07/07 06:54:14;;;;;;;7.13;5.93;;;15.40;99.90;;;;;;5045224;28;20462;-74
2022/07/07 06:56:40;;;;;;;7.20;5.85;;;15.30;99.90;;;;;;5042328;28;20033;-74
2022/07/07 06:59:05;;;;;;;9.10;6.28;;;15.30;99.90;;;;;;5042587;28;20041;-74
2022/07/07 07:01:31;;;;;;;11.23;6.07;;;15.30;99.90;;;;;;5037680;28;20121;-74
2022/07/07 07:03:56;;;;;;;9.68;5.78;;;15.40;99.90;;;;;;5043735;28;20028;-74
2022/07/07 07:06:22;;;;;;;9.02;6.30;;;15.40;99.90;;;;;;5039480;28;20116;-74
2022/07/07 07:08:48;;;;;;;11.00;6.30;;;15.50;99.90;;;;;;5040659;28;20108;-74
2022/07/07 07:11:14;;;;;;;9.13;6.25;;;15.50;99.90;;;;;;5044108;28;20025;-74
2022/07/07 07:13:39;;;;;;;8.30;6.25;;;15.60;99.90;;;;;;5047173;28;20079;-74
2022/07/07 07:16:05;;;;;;;8.68;6.72;;;15.60;99.90;;;;;;5049218;28;20033;-75
2022/07/07 07:18:31;;;;;;;6.60;5.85;;;15.60;99.90;;;;;;5039729;28;20048;-74
2022/07/07 07:20:56;;;;;;;11.15;6.40;;;15.60;99.90;;;;;;5037297;28;20040;-74
2022/07/07 07:23:22;;;;;;;17.30;6.82;;;15.60;99.90;;;;;;5027726;28;20029;-75
2022/07/07 07:25:48;;;;;;;9.35;6.82;;;15.60;99.90;;;;;;5044924;28;20091;-74
2022/07/07 07:28:13;;;;;;;11.57;7.03;;;15.70;99.90;;;;;;5043887;28;20508;-74
2022/07/07 07:30:39;;;;;;;8.38;6.93;;;15.60;99.90;;;;;;5043168;28;20075;-75
2022/07/07 07:33:04;;;;;;;9.65;6.38;;;15.60;99.90;;;;;;5046511;28;20021;-74
2022/07/07 07:35:30;;;;;;;8.50;7.32;;;15.60;99.90;;;;;;5042414;28;20048;-75
2022/07/07 07:37:55;;;;;;;11.13;7.40;;;15.50;99.90;;;;;;5045757;28;20040;-76
2022/07/07 07:40:21;;;;;;;8.88;7.70;;;15.50;99.90;;;;;;5040588;28;20036;-76
2022/07/07 07:42:47;;;;;;;9.35;7.65;;;15.50;99.90;;;;;;5042106;28;20057;-75
2022/07/07 07:45:12;;;;;;;9.57;7.72;;;15.50;99.90;;;;;;5041346;28;20021;-74
2022/07/07 07:47:43;;;;;;;12.30;8.00;;;15.50;99.90;;;;;;5052094;28;20056;-73
2022/07/07 07:50:12;;;;;;;8.93;8.02;;;15.50;99.90;;;;;;5026626;28;20100;-74
2022/07/07 07:52:41;;;;;;;11.13;7.65;;;15.50;99.90;;;;;;5035221;28;20025;-73
2022/07/07 07:55:09;;;;;;;13.10;9.00;;;15.50;99.90;;;;;;5039928;28;20068;-73
2022/07/07 07:57:36;;;;;;;11.13;8.38;;;15.50;99.90;;;;;;5045257;28;20113;-74
2022/07/07 08:00:06;;;;;;;10.60;8.48;;;15.50;99.90;;;;;;5031824;28;20033;-74
2022/07/07 08:02:32;;;;;;;12.50;9.35;;;15.50;99.90;;;;;;5039859;28;20033;-74
2022/07/07 08:04:57;;;;;;;10.48;8.82;;;15.50;99.90;;;;;;5046247;28;20040;-76
2022/07/07 08:07:23;;;;;;;13.27;8.57;;;15.50;99.90;;;;;;5040875;28;20028;-74
2022/07/07 08:09:49;;;;;;;12.77;9.00;;;15.50;99.90;;;;;;5039212;28;20032;-75
2022/07/07 08:12:14;;;;;;;12.30;7.93;;;15.60;99.90;;;;;;5046121;28;20580;-75
2022/07/07 08:14:40;;;;;;;12.48;9.25;;;15.60;99.90;;;;;;5045091;28;20245;-75
2022/07/07 08:17:06;;;;;;;12.10;8.75;;;15.60;99.90;;;;;;5039392;28;20037;-75
2022/07/07 08:19:32;;;;;;;11.50;9.20;;;15.60;99.90;;;;;;5047140;28;20032;-75
2022/07/07 08:21:58;;;;;;;12.68;8.57;;;15.70;99.90;;;;;;5035775;28;20473;-75
2022/07/07 08:24:23;;;;;;;10.57;8.48;;;15.70;99.90;;;;;;5059887;28;20023;-74
2022/07/07 08:26:49;;;;;;;10.75;9.13;;;15.80;99.90;;;;;;5050218;28;20057;-75
2022/07/07 08:29:15;;;;;;;14.73;9.52;;;16.00;99.90;;;;;;5041009;28;20213;-75
2022/07/07 08:31:40;;;;;;;10.30;9.23;;;16.20;99.90;;;;;;5045982;28;20021;-75
2022/07/07 08:34:07;;;;;;;8.27;7.43;;;16.50;99.90;;;;;;5042188;28;20045;-75
2022/07/07 08:36:33;;;;;;;10.90;8.02;;;16.80;99.90;;;;;;5026878;28;20501;-75
2022/07/07 08:38:59;;;;;;;6.43;5.55;;;17.10;99.90;;;;;;5024434;28;20496;-75
2022/07/07 08:41:26;;;;;;;6.43;3.50;;;17.50;99.90;;;;;;5047029;28;20029;-75
2022/07/07 08:43:51;;;;;;;6.10;1.80;;;17.90;99.90;;;;;;5038581;28;20393;-75
2022/07/07 08:46:17;;;;;;;3.65;1.50;;;18.20;99.90;;;;;;5033457;28;20384;-75
2022/07/07 08:48:43;;;;;;;1.70;1.27;;;18.50;99.90;;;;;;5038370;28;20056;-75
2022/07/07 08:51:09;;;;;;;1.30;1.20;;;18.80;99.90;;;;;;5049480;28;20021;-75
2022/07/07 08:53:37;;;;;;;2.90;1.40;;;19.20;99.90;;;;;;5050362;28;20025;-75
2022/07/07 08:56:09;;;;;;;1.90;1.55;;;19.60;99.90;;;;;;5039994;28;20056;-75
2022/07/07 08:58:36;;;;;;;3.05;1.63;;;19.80;99.90;;;;;;5043660;28;20424;-75
2022/07/07 09:01:07;;;;;;;1.85;1.40;;;19.80;99.90;;;;;;5050323;28;20024;-75
2022/07/07 09:03:34;;;;;;;5.25;4.15;;;19.80;99.90;;;;;;5051483;28;20541;-74
2022/07/07 09:06:00;;;;;;;5.65;4.78;;;19.70;99.90;;;;;;5027354;28;20348;-74
2022/07/07 09:08:28;;;;;;;7.07;5.90;;;19.60;99.90;;;;;;5039443;28;20358;-74
2022/07/07 09:10:54;;;;;;;6.97;6.28;;;19.50;99.90;;;;;;5044776;28;20048;-75
2022/07/07 09:13:25;;;;;;;8.93;6.30;;;19.50;99.90;;;;;;5043787;28;20390;-74
2022/07/07 09:16:00;;;;;;;7.90;6.45;;;19.50;99.90;;;;;;5026487;28;20032;-75
2022/07/07 09:18:38;;;;;;;6.30;5.70;;;19.60;99.90;;;;;;5041367;28;20539;-74
2022/07/07 09:21:25;;;;;;;3.08;2.75;;;19.80;99.90;;;;;;5060822;28;20100;-74
2022/07/07 09:23:56;;;;;;;2.80;1.48;;;20.10;99.90;;;;;;5043971;28;20037;-74
2022/07/07 09:26:35;;;;;;;1.50;1.38;;;20.20;99.90;;;;;;5032881;28;20511;-74
2022/07/07 09:29:02;;;;;;;1.92;1.15;;;20.20;99.90;;;;;;5044444;28;20039;-74
2022/07/07 09:31:51;;;;;;;1.70;1.20;;;20.10;99.90;;;;;;5038234;28;20021;-74
2022/07/07 09:34:17;;;;;;;0.75;0.75;;;20.10;99.90;;;;;;4332818;28;10021589;-74
2022/07/07 09:39:48;;;;;;;1.15;0.55;;;20.00;99.90;;;;;;5038891;28;20533;-74
2022/07/07 09:42:22;;;;;;;0.65;0.63;;;19.70;99.90;;;;;;5032987;28;20687;-76
2022/07/07 09:44:54;;;;;;;0.47;0.43;;;19.30;99.90;;;;;;5065690;28;20105;-75
2022/07/07 09:47:21;;;;;;;1.50;0.60;;;19.00;99.90;;;;;;5049397;28;20388;-75
2022/07/07 09:50:07;;;;;;;0.98;0.60;;;18.80;99.90;;;;;;5023820;28;20026;-74
2022/07/07 09:52:35;;;;;;;1.17;0.40;;;18.80;99.90;;;;;;5045342;28;20025;-74
2022/07/07 09:55:03;;;;;;;1.00;0.52;;;19.00;99.90;;;;;;5064511;28;20090;-74
2022/07/07 09:57:29;;;;;;;0.85;0.57;;;19.20;99.90;;;;;;5046318;28;20685;-74
2022/07/07 09:59:55;;;;;;;0.32;0.32;;;19.40;99.90;;;;;;5045969;28;20028;-74
2022/07/07 10:02:25;;;;;;;2.42;0.60;;;19.40;99.90;;;;;;5060452;28;20017;-74
2022/07/07 10:04:59;;;;;;;0.85;0.40;;;19.50;99.90;;;;;;5062399;28;20036;-74
2022/07/07 10:07:30;;;;;;;0.30;0.30;;;19.30;99.90;;;;;;5050295;28;20118;-73
2022/07/07 10:09:58;;;;;;;2.00;0.30;;;19.20;99.90;;;;;;5042332;28;20052;-73
2022/07/07 10:12:27;;;;;;;0.35;0.30;;;19.20;99.90;;;;;;5056475;28;20435;-73
2022/07/07 10:15:04;;;;;;;1.88;0.40;;;19.10;99.90;;;;;;5047645;28;20019;-73
2022/07/07 10:17:30;;;;;;;0.32;0.32;;;19.10;99.90;;;;;;5050417;28;20417;-73
2022/07/07 10:19:57;;;;;;;2.15;0.45;;;19.20;99.90;;;;;;5049959;28;20020;-74
2022/07/07 10:22:27;;;;;;;0.40;0.30;;;19.20;99.90;;;;;;5050654;28;20492;-74
2022/07/07 10:24:57;;;;;;;1.08;0.60;;;19.20;99.90;;;;;;5048664;28;20029;-73
2022/07/07 10:27:27;;;;;;;1.08;0.47;;;19.20;99.90;;;;;;5044766;28;20024;-74
2022/07/07 10:29:55;;;;;;;0.40;0.40;;;19.10;99.90;;;;;;5037118;28;20030;-73
2022/07/07 10:32:24;;;;;;;1.95;0.60;;;;;;;;;;5029349;28;20087;-73
2022/07/07 10:34:55;;;;;;;1.02;0.52;;;19.30;99.90;;;;;;5042905;28;20051;-73
2022/07/07 10:37:22;;;;;;;1.17;0.70;;;19.40;99.90;;;;;;5047665;28;20494;-73
2022/07/07 10:39:50;;;;;;;3.33;0.65;;;19.40;99.90;;;;;;5039317;28;20468;-74
2022/07/07 10:42:15;;;;;;;2.92;0.75;;;19.50;99.90;;;;;;5047804;28;20440;-74
2022/07/07 10:44:44;;;;;;;3.33;0.75;;;19.50;99.90;;;;;;5046956;28;20033;-74
2022/07/07 10:47:12;;;;;;;4.25;0.70;;;19.50;99.90;;;;;;5046543;28;20104;-74
2022/07/07 10:49:51;;;;;;;1.13;0.65;;;19.40;99.90;;;;;;5034551;28;20040;-74
2022/07/07 10:52:17;;;;;;;2.20;0.60;;;19.40;99.90;;;;;;5046857;28;20500;-74
2022/07/07 10:54:58;;;;;;;1.08;0.60;;;19.50;99.90;;;;;;5045781;28;20065;-74
2022/07/07 10:57:28;;;;;;;1.58;0.55;;;19.70;99.90;;;;;;5060803;28;20024;-73
2022/07/07 10:59:58;;;;;;;1.17;0.60;;;19.90;99.90;;;;;;5055259;28;20031;-74
2022/07/07 11:02:39;;;;;;;3.13;0.70;;;20.10;99.90;;;;;;5047046;28;20548;-74
2022/07/07 11:05:13;;;;;;;1.10;0.63;;;20.10;99.90;;;;;;5041226;28;20033;-74
2022/07/07 11:07:40;;;;;;;1.25;0.57;;;20.20;99.90;;;;;;5042877;28;20544;-73
2022/07/07 11:10:11;;;;;;;2.67;0.60;;;20.30;99.90;;;;;;5043948;28;20388;-73
2022/07/07 11:12:48;;;;;;;1.15;0.60;;;20.40;99.90;;;;;;5033258;28;20104;-73
2022/07/07 11:15:28;;;;;;;3.03;0.70;;;20.40;99.90;;;;;;5040904;28;20033;-73
2022/07/07 11:17:55;;;;;;;2.03;0.77;;;20.30;99.90;;;;;;5042244;28;20115;-73
2022/07/07 11:20:24;;;;;;;3.88;0.75;;;20.10;99.90;;;;;;5041762;28;20040;-73
2022/07/07 11:22:55;;;;;;;2.47;0.80;;;20.00;99.90;;;;;;5059335;28;20043;-73
2022/07/07 11:25:23;;;;;;;2.13;0.70;;;20.00;99.90;;;;;;5043132;28;20025;-73
2022/07/07 11:27:51;;;;;;;2.03;0.80;;;19.90;99.90;;;;;;5043830;28;20017;-73
2022/07/07 11:30:21;;;;;;;1.85;0.80;;;19.80;99.90;;;;;;5039205;28;20025;-74
2022/07/07 11:32:47;;;;;;;1.85;0.70;;;19.70;99.90;;;;;;5043445;28;20029;-73
2022/07/07 11:35:13;;;;;;;1.85;0.80;;;19.70;99.90;;;;;;5044099;28;20119;-73
2022/07/07 11:37:44;;;;;;;1.83;0.60;;;19.90;99.90;;;;;;5048281;28;20081;-74
2022/07/07 11:40:12;;;;;;;2.28;0.70;;;20.10;99.90;;;;;;5041994;28;20025;-73
2022/07/07 11:42:39;;;;;;;1.88;0.70;;;20.30;99.90;;;;;;5041653;28;20029;-74
2022/07/07 11:45:21;;;;;;;1.55;0.68;;;20.50;99.90;;;;;;5043465;28;20079;-74
2022/07/07 11:47:48;;;;;;;4.75;1.00;;;20.80;99.90;;;;;;5043682;28;20075;-74
2022/07/07 11:50:14;;;;;;;3.53;0.80;;;21.00;99.90;;;;;;5037285;28;20056;-73
2022/07/07 11:52:46;;;;;;;2.50;0.65;;;20.90;99.90;;;;;;5038925;28;20484;-74
2022/07/07 11:55:13;;;;;;;1.30;0.73;;;20.90;99.90;;;;;;5036530;28;20030;-74
2022/07/07 11:57:39;;;;;;;3.42;0.85;;;20.70;99.90;;;;;;5043845;28;20017;-74
2022/07/07 12:00:18;;;;;;;2.95;0.70;;;20.50;99.90;;;;;;5041298;28;20025;-73
2022/07/07 12:02:45;;;;;;;2.78;0.80;;;20.30;99.90;;;;;;5044635;28;20402;-74
2022/07/07 12:05:11;;;;;;;1.85;0.70;;;20.30;99.90;;;;;;5038815;28;20033;-74
2022/07/07 12:07:38;;;;;;;2.40;0.68;;;20.30;99.90;;;;;;5042666;28;20035;-74
2022/07/07 12:10:05;;;;;;;2.30;0.60;;;20.60;99.90;;;;;;5033181;28;20021;-73
2022/07/07 12:12:30;;;;;;;3.35;0.90;;;20.90;99.90;;;;;;5039878;28;20036;-74
2022/07/07 12:14:56;;;;;;;3.35;0.60;;;21.10;99.90;;;;;;5038345;28;20025;-74
2022/07/07 12:17:35;;;;;;;2.45;0.82;;;21.30;99.90;;;;;;5035689;28;20025;-74
2022/07/07 12:20:00;;;;;;;8.82;0.85;;;21.40;99.90;;;;;;5039674;28;20049;-74
2022/07/07 12:22:37;;;;;;;2.88;0.88;;;21.60;99.90;;;;;;5041450;28;20071;-73
2022/07/07 12:25:09;;;;;;;1.88;0.77;;;22.00;99.90;;;;;;5043680;28;20087;-73
2022/07/07 12:27:34;;;;;;;4.05;0.80;;;21.90;99.90;;;;;;5035142;28;20033;-73
2022/07/07 12:30:01;;;;;;;4.53;0.77;;;22.00;99.90;;;;;;5039059;28;20594;-73
2022/07/07 12:32:27;;;;;;;3.10;0.63;;;22.30;99.90;;;;;;5039409;28;20023;-73
2022/07/07 12:34:53;;;;;;;3.58;0.63;;;22.80;99.90;;;;;;5042846;28;20584;-74
2022/07/07 12:37:18;;;;;;;2.40;0.90;;;23.00;99.90;;;;;;5040852;28;20465;-74
2022/07/07 12:39:48;;;;;;;3.50;0.65;;;22.90;99.90;;;;;;5040439;28;20035;-74
2022/07/07 12:42:24;;;;;;;2.03;0.50;;;22.70;99.90;;;;;;5035267;28;20029;-73
2022/07/07 12:44:49;;;;;;;3.30;0.50;;;22.50;99.90;;;;;;5039267;28;20406;-73
2022/07/07 12:47:18;;;;;;;1.48;0.60;;;22.30;99.60;;;;;;5042546;28;20153;-74
2022/07/07 12:49:57;;;;;;;1.77;0.50;;;22.30;99.90;;;;;;5041796;28;20025;-74